PORTS® Data Listing: 9414290 San Francisco, CA

CO-OPS RAW PORTS DATA

************************      PRELIMINARY DATA      ************************** 

     THIS RAW DATA HAS NOT BEEN SUBJECT TO THE NATIONAL OCEAN SERVICE'S        
     QUALITY CONTROL OR QUALITY ASSURANCE PROCEDURES AND DOES NOT MEET         
     THE CRITERIA AND STANDARDS OF OFFICIAL NATIONAL OCEAN SERVICE             
     DATA.  IT IS RELEASED FOR LIMITED PUBLIC USE AS PRELIMINARY DATA TO       
     BE USED ONLY WITH APPROPRIATE CAUTION.                                    

************************      PRELIMINARY DATA      ************************** 


       CD   -   Calendar date
       T    -   Time
       TZ   -   Timezone
       PW   -   Predicted water level (feet above MLLW)
       OW   -   Observed water level (feet above MLLW)
       WS   -   Wind speed (knots)
       WD   -   Wind direction (degrees true)
       WG   -   Wind gust (knots)
       AT   -   Air temperature (degrees farenheit)
       WT   -   Water temperature (degrees farenheit)
       AP   -   Air pressure (millibars)
       SA   -   Salinty (PSU - Practical Salinity Units)
       SG   -   Specific gravity
       RH   -   Relative humidity
       AG   -   Air gap (feet)
       VI   -   Visibility (nautical miles)

       ** NOTE **
       A variable that has its data fields filled with "9"s, indicates that
       data was not collected for that sample period.
       **********


STATION NAME: San Francisco (9414290)
****************************************************************************************************
    CD       T    TZ    PW     OW    WS   WD   WG    AT    WT    AP    SA    SG     RH    AG   VI
****************************************************************************************************
2019/09/21 09:06 PDT    3.40   3.60    1   15    2  64.0  61.0 1015.3 -9.9 -9.999 -99.9 -99.99 -9.99
2019/09/21 09:12 PDT    3.37   3.60    1   14    2  64.0  61.2 1015.3 -9.9 -9.999 -99.9 -99.99 -9.99
2019/09/21 09:18 PDT    3.34   3.55    1   15    1  64.2  61.3 1015.3 -9.9 -9.999 -99.9 -99.99 -9.99
2019/09/21 09:24 PDT    3.32   3.53    1   15    2  64.2  61.5 1015.3 -9.9 -9.999 -99.9 -99.99 -9.99
2019/09/21 09:30 PDT    3.29   3.52    1    0    2  64.6  61.5 1015.4 -9.9 -9.999 -99.9 -99.99 -9.99
2019/09/21 09:36 PDT    3.27   3.50    0    0    2  65.1  61.7 1015.5 -9.9 -9.999 -99.9 -99.99 -9.99
2019/09/21 09:42 PDT    3.25   3.47    0    0    1  66.2  61.7 1015.5 -9.9 -9.999 -99.9 -99.99 -9.99
2019/09/21 09:48 PDT    3.23   3.45    2   15    2  65.7  61.7 1015.4 -9.9 -9.999 -99.9 -99.99 -9.99
2019/09/21 09:54 PDT    3.21   3.42    2   19    2  65.3  61.7 1015.4 -9.9 -9.999 -99.9 -99.99 -9.99
2019/09/21 10:00 PDT    3.20   3.40    2   42    3  65.1  61.9 1015.4 -9.9 -9.999 -99.9 -99.99 -9.99
2019/09/21 10:06 PDT    3.18   3.38    1   66    3  65.1  61.9 1015.4 -9.9 -9.999 -99.9 -99.99 -9.99
2019/09/21 10:12 PDT    3.17   3.39    1   28    1  65.3  61.9 1015.3 -9.9 -9.999 -99.9 -99.99 -9.99
2019/09/21 10:18 PDT    3.16   3.36    1   48    2  65.7  62.1 1015.3 -9.9 -9.999 -99.9 -99.99 -9.99
2019/09/21 10:24 PDT    3.16   3.34    2   23    2  65.1  62.1 1015.4 -9.9 -9.999 -99.9 -99.99 -9.99
2019/09/21 10:30 PDT    3.15   3.36    2   23    3  65.1  62.1 1015.5 -9.9 -9.999 -99.9 -99.99 -9.99
2019/09/21 10:36 PDT    3.15   3.36    1   28    2  65.3  62.1 1015.4 -9.9 -9.999 -99.9 -99.99 -9.99
2019/09/21 10:42 PDT    3.15   3.38    1  354    1  66.0  62.2 1015.3 -9.9 -9.999 -99.9 -99.99 -9.99
2019/09/21 10:48 PDT    3.16   3.37    1    3    2  66.0  62.2 1015.3 -9.9 -9.999 -99.9 -99.99 -9.99
2019/09/21 10:54 PDT    3.16   3.39    1   22    2  66.0  62.2 1015.2 -9.9 -9.999 -99.9 -99.99 -9.99
2019/09/21 11:00 PDT    3.17   3.39    1   90    2  66.4  62.1 1015.2 -9.9 -9.999 -99.9 -99.99 -9.99
2019/09/21 11:06 PDT    3.18   3.40    1   92    2  66.7  61.7 1015.2 -9.9 -9.999 -99.9 -99.99 -9.99
2019/09/21 11:12 PDT    3.19   3.40    1   81    2  66.9  61.9 1015.1 -9.9 -9.999 -99.9 -99.99 -9.99
2019/09/21 11:18 PDT    3.21   3.41    1   60    2  66.9  61.9 1015.1 -9.9 -9.999 -99.9 -99.99 -9.99
2019/09/21 11:24 PDT    3.23   3.44    2   69    3  66.7  62.2 1015.0 -9.9 -9.999 -99.9 -99.99 -9.99
2019/09/21 11:30 PDT    3.25   3.47    2   71    3  66.6  62.4 1015.0 -9.9 -9.999 -99.9 -99.99 -9.99
2019/09/21 11:36 PDT    3.27   3.53    2   76    3  66.7  62.6 1014.9 -9.9 -9.999 -99.9 -99.99 -9.99
2019/09/21 11:42 PDT    3.29   3.57    1   51    2  66.9  62.8 1014.8 -9.9 -9.999 -99.9 -99.99 -9.99
2019/09/21 11:48 PDT    3.32   3.59    2   77    2  67.5  63.0 1014.8 -9.9 -9.999 -99.9 -99.99 -9.99
2019/09/21 11:54 PDT    3.34   3.64    3   80    4  67.1  63.1 1014.7 -9.9 -9.999 -99.9 -99.99 -9.99
2019/09/21 12:00 PDT    3.37   3.67    1   88    4  67.6  63.1 1014.6 -9.9 -9.999 -99.9 -99.99 -9.99
2019/09/21 12:06 PDT    3.41   3.69    0   67    1  68.7  63.3 1014.6 -9.9 -9.999 -99.9 -99.99 -9.99
2019/09/21 12:12 PDT    3.44   3.74    0   48    0  69.6  63.3 1014.6 -9.9 -9.999 -99.9 -99.99 -9.99
2019/09/21 12:18 PDT    3.48   3.76    0  330    1  71.1  62.8 1014.5 -9.9 -9.999 -99.9 -99.99 -9.99
2019/09/21 12:24 PDT    3.51   3.78    1  302    1  73.9  62.4 1014.5 -9.9 -9.999 -99.9 -99.99 -9.99
2019/09/21 12:30 PDT    3.55   3.86    1  298    1  75.6  62.2 1014.5 -9.9 -9.999 -99.9 -99.99 -9.99
2019/09/21 12:36 PDT    3.59   3.92    4  310    4  75.4  62.2 1014.4 -9.9 -9.999 -99.9 -99.99 -9.99
2019/09/21 12:42 PDT    3.63   3.93    5  277    6  75.7  62.4 1014.3 -9.9 -9.999 -99.9 -99.99 -9.99
2019/09/21 12:48 PDT    3.68   3.96    5  261    6  75.2  62.6 1014.2 -9.9 -9.999 -99.9 -99.99 -9.99
2019/09/21 12:54 PDT    3.72   4.00    6  245    8  75.0  62.6 1014.2 -9.9 -9.999 -99.9 -99.99 -9.99
2019/09/21 13:00 PDT    3.77   4.03    4  255    7  74.7  62.8 1014.1 -9.9 -9.999 -99.9 -99.99 -9.99
2019/09/21 13:06 PDT    3.82   4.07    4  247    6  75.6  63.1 1013.9 -9.9 -9.999 -99.9 -99.99 -9.99
2019/09/21 13:12 PDT    3.87   4.15    5  261    7  76.1  62.8 1013.9 -9.9 -9.999 -99.9 -99.99 -9.99
2019/09/21 13:18 PDT    3.92   4.22    8  245    9  75.4  62.6 1013.8 -9.9 -9.999 -99.9 -99.99 -9.99
2019/09/21 13:24 PDT    3.97   4.26    8  239   12  73.9  62.8 1013.8 -9.9 -9.999 -99.9 -99.99 -9.99
2019/09/21 13:30 PDT    4.03   4.33   10  247   14  74.1  62.8 1013.8 -9.9 -9.999 -99.9 -99.99 -9.99
2019/09/21 13:36 PDT    4.08   4.39   10  248   14  74.5  63.0 1013.7 -9.9 -9.999 -99.9 -99.99 -9.99
2019/09/21 13:42 PDT    4.14   4.43   10  249   14  74.7  63.0 1013.7 -9.9 -9.999 -99.9 -99.99 -9.99
2019/09/21 13:48 PDT    4.20   4.46   10  247   14  74.3  63.1 1013.6 -9.9 -9.999 -99.9 -99.99 -9.99
2019/09/21 13:54 PDT    4.25   4.51   11  240   14  73.2  62.8 1013.6 -9.9 -9.999 -99.9 -99.99 -9.99
2019/09/21 14:00 PDT    4.31   4.55    8  258   13  73.4  62.8 1013.5 -9.9 -9.999 -99.9 -99.99 -9.99
2019/09/21 14:06 PDT    4.37   4.58   11  253   14  73.4  62.4 1013.4 -9.9 -9.999 -99.9 -99.99 -9.99
2019/09/21 14:12 PDT    4.43   4.65   13  254   17  73.0  62.4 1013.3 -9.9 -9.999 -99.9 -99.99 -9.99
2019/09/21 14:18 PDT    4.49   4.73   11  259   15  73.2  62.1 1013.3 -9.9 -9.999 -99.9 -99.99 -9.99
2019/09/21 14:24 PDT    4.54   4.79   11  261   14  72.1  62.1 1013.3 -9.9 -9.999 -99.9 -99.99 -9.99
2019/09/21 14:30 PDT    4.60   4.83    8  243   14  71.8  62.1 1013.2 -9.9 -9.999 -99.9 -99.99 -9.99
2019/09/21 14:36 PDT    4.66   4.88    9  251   16  71.4  61.7 1013.2 -9.9 -9.999 -99.9 -99.99 -9.99
2019/09/21 14:42 PDT    4.72   4.93   11  252   16  71.2  61.9 1013.1 -9.9 -9.999 -99.9 -99.99 -9.99
2019/09/21 14:48 PDT    4.77   4.99   10  253   17  71.1  61.9 1013.1 -9.9 -9.999 -99.9 -99.99 -9.99
2019/09/21 14:54 PDT    4.83   5.04   10  244   16  70.5  61.9 1013.0 -9.9 -9.999 -99.9 -99.99 -9.99
2019/09/21 15:00 PDT    4.88   5.09   10  242   16  70.7  62.1 1013.0 -9.9 -9.999 -99.9 -99.99 -9.99
2019/09/21 15:06 PDT    4.93   5.12   10  250   13  71.2  62.1 1013.0 -9.9 -9.999 -99.9 -99.99 -9.99
2019/09/21 15:12 PDT    4.98   5.14   11  255   17  70.7  61.7 1013.0 -9.9 -9.999 -99.9 -99.99 -9.99
2019/09/21 15:18 PDT    5.03   5.19   11  252   16  70.5  61.7 1012.9 -9.9 -9.999 -99.9 -99.99 -9.99
2019/09/21 15:24 PDT    5.07   5.25   10  243   15  70.3  61.9 1012.8 -9.9 -9.999 -99.9 -99.99 -9.99
2019/09/21 15:30 PDT    5.12   5.30   13  251   17  70.5  61.7 1012.8 -9.9 -9.999 -99.9 -99.99 -9.99
2019/09/21 15:36 PDT    5.16   5.35   10  246   17  70.2  61.5 1012.8 -9.9 -9.999 -99.9 -99.99 -9.99
2019/09/21 15:42 PDT    5.20   5.40   11  246   16  70.2  61.5 1012.7 -9.9 -9.999 -99.9 -99.99 -9.99
2019/09/21 15:48 PDT    5.24   5.43   11  239   16  70.0  61.0 1012.7 -9.9 -9.999 -99.9 -99.99 -9.99
2019/09/21 15:54 PDT    5.27   5.48   11  239   16  70.2  60.6 1012.6 -9.9 -9.999 -99.9 -99.99 -9.99
2019/09/21 16:00 PDT    5.30   5.49   10  246   16  71.4  60.3 1012.6 -9.9 -9.999 -99.9 -99.99 -9.99
2019/09/21 16:06 PDT    5.33   5.53   10  250   13  72.3  59.7 1012.5 -9.9 -9.999 -99.9 -99.99 -9.99
2019/09/21 16:12 PDT    5.36   5.56    9  258   14  72.5  59.5 1012.5 -9.9 -9.999 -99.9 -99.99 -9.99
2019/09/21 16:18 PDT    5.38   5.58   10  263   13  72.3  59.5 1012.6 -9.9 -9.999 -99.9 -99.99 -9.99
2019/09/21 16:24 PDT    5.40   5.60   11  237   17  71.6  59.4 1012.6 -9.9 -9.999 -99.9 -99.99 -9.99
2019/09/21 16:30 PDT    5.42   5.61   11  240   15  70.9  59.4 1012.7 -9.9 -9.999 -99.9 -99.99 -9.99
2019/09/21 16:36 PDT    5.43   5.62   12  246   17  68.9  59.2 1012.7 -9.9 -9.999 -99.9 -99.99 -9.99
2019/09/21 16:42 PDT    5.44   5.63   13  240   17  67.3  59.0 1012.7 -9.9 -9.999 -99.9 -99.99 -9.99
2019/09/21 16:48 PDT    5.45   5.63   10  243   16  66.4  58.8 1012.7 -9.9 -9.999 -99.9 -99.99 -9.99
2019/09/21 16:54 PDT    5.45   5.61    9  236   14  66.0  58.6 1012.7 -9.9 -9.999 -99.9 -99.99 -9.99
2019/09/21 17:00 PDT    5.45   5.62   10  224   13  65.3  58.6 1012.7 -9.9 -9.999 -99.9 -99.99 -9.99
2019/09/21 17:06 PDT    5.45   5.60    9  228   15  64.9  58.5 1012.6 -9.9 -9.999 -99.9 -99.99 -9.99
2019/09/21 17:12 PDT    5.44   5.58   10  231   16  65.3  58.5 1012.6 -9.9 -9.999 -99.9 -99.99 -9.99
2019/09/21 17:18 PDT    5.43   5.56    8  243   14  66.0  58.3 1012.6 -9.9 -9.999 -99.9 -99.99 -9.99
2019/09/21 17:24 PDT    5.41   5.56   10  232   14  66.0  58.1 1012.6 -9.9 -9.999 -99.9 -99.99 -9.99
2019/09/21 17:30 PDT    5.39   5.52   11  229   15  65.8  57.9 1012.6 -9.9 -9.999 -99.9 -99.99 -9.99
2019/09/21 17:36 PDT    5.37   5.49   11  229   15  65.3  57.9 1012.7 -9.9 -9.999 -99.9 -99.99 -9.99
2019/09/21 17:42 PDT    5.34   5.45    8  229   14  65.7  57.7 1012.7 -9.9 -9.999 -99.9 -99.99 -9.99
2019/09/21 17:48 PDT    5.31   5.43   13  224   16  65.8  57.7 1012.7 -9.9 -9.999 -99.9 -99.99 -9.99
2019/09/21 17:54 PDT    5.27   5.40   11  237   16  65.7  57.9 1012.7 -9.9 -9.999 -99.9 -99.99 -9.99
2019/09/21 18:00 PDT    5.23   5.38   11  223   16  66.0  57.9 1012.7 -9.9 -9.999 -99.9 -99.99 -9.99
2019/09/21 18:06 PDT    5.18   5.34   12  244   15  65.5  58.1 1012.7 -9.9 -9.999 -99.9 -99.99 -9.99
2019/09/21 18:12 PDT    5.13   5.31   10  237   14  65.1  58.3 1012.7 -9.9 -9.999 -99.9 -99.99 -9.99
2019/09/21 18:18 PDT    5.08   5.23    8  229   13  65.3  58.3 1012.7 -9.9 -9.999 -99.9 -99.99 -9.99
2019/09/21 18:24 PDT    5.02   5.21   12  245   16  65.3  58.5 1012.7 -9.9 -9.999 -99.9 -99.99 -9.99
2019/09/21 18:30 PDT    4.96   5.14   11  246   15  65.5  58.5 1012.7 -9.9 -9.999 -99.9 -99.99 -9.99
2019/09/21 18:36 PDT    4.89   5.07   10  249   15  65.3  58.6 1012.7 -9.9 -9.999 -99.9 -99.99 -9.99
2019/09/21 18:42 PDT    4.82   5.02   11  240   15  64.9  58.8 1012.7 -9.9 -9.999 -99.9 -99.99 -9.99
2019/09/21 18:48 PDT    4.74   4.96   12  248   18  64.6  59.0 1012.7 -9.9 -9.999 -99.9 -99.99 -9.99
2019/09/21 18:54 PDT    4.66   4.88   13  246   17  63.9  59.0 1012.7 -9.9 -9.999 -99.9 -99.99 -9.99
2019/09/21 19:00 PDT    4.58   4.81   13  241   19  63.5  59.2 1012.6 -9.9 -9.999 -99.9 -99.99 -9.99
2019/09/21 19:06 PDT    4.49   4.72   13  245   17  63.3  59.4 1012.6 -9.9 -9.999 -99.9 -99.99 -9.99
2019/09/21 19:12 PDT    4.40   4.61   11  247   16  63.1  59.5 1012.6 -9.9 -9.999 -99.9 -99.99 -9.99
2019/09/21 19:18 PDT    4.31   4.50   11  247   17  63.1  59.5 1012.6 -9.9 -9.999 -99.9 -99.99 -9.99
2019/09/21 19:24 PDT    4.22   4.42   14  245   17  63.0  59.5 1012.5 -9.9 -9.999 -99.9 -99.99 -9.99
2019/09/21 19:30 PDT    4.12   4.34   11  248   16  63.0  59.5 1012.6 -9.9 -9.999 -99.9 -99.99 -9.99
2019/09/21 19:36 PDT    4.02   4.24   12  245   17  62.6  59.7 1012.6 -9.9 -9.999 -99.9 -99.99 -9.99
2019/09/21 19:42 PDT    3.91   4.15   12  243   17  62.2  60.1 1012.6 -9.9 -9.999 -99.9 -99.99 -9.99
2019/09/21 19:48 PDT    3.81   4.05   13  245   17  62.1  60.3 1012.7 -9.9 -9.999 -99.9 -99.99 -9.99
2019/09/21 19:54 PDT    3.70   3.93   11  255   16  61.9  60.3 1012.6 -9.9 -9.999 -99.9 -99.99 -9.99
2019/09/21 20:00 PDT    3.59   3.79   11  240   16  61.7  60.1 1012.6 -9.9 -9.999 -99.9 -99.99 -9.99
2019/09/21 20:06 PDT    3.48   3.71   12  238   17  61.5  60.1 1012.8 -9.9 -9.999 -99.9 -99.99 -9.99
2019/09/21 20:12 PDT    3.37   3.60    8  239   16  61.3  60.1 1013.0 -9.9 -9.999 -99.9 -99.99 -9.99
2019/09/21 20:18 PDT    3.26   3.51   10  236   15  61.3  60.1 1013.0 -9.9 -9.999 -99.9 -99.99 -9.99
2019/09/21 20:24 PDT    3.15   3.40    9  236   14  61.3  60.1 1013.1 -9.9 -9.999 -99.9 -99.99 -9.99
2019/09/21 20:30 PDT    3.04   3.31   10  244   17  61.2  60.1 1013.0 -9.9 -9.999 -99.9 -99.99 -9.99
2019/09/21 20:36 PDT    2.92   3.20   10  243   15  61.2  59.9 1013.2 -9.9 -9.999 -99.9 -99.99 -9.99
2019/09/21 20:42 PDT    2.81   3.08   10  233   14  61.0  59.7 1013.2 -9.9 -9.999 -99.9 -99.99 -9.99
2019/09/21 20:48 PDT    2.70   2.96    8  240   13  61.0  59.7 1013.3 -9.9 -9.999 -99.9 -99.99 -9.99
2019/09/21 20:54 PDT    2.59   2.84   10  241   15  60.8  59.7 1013.3 -9.9 -9.999 -99.9 -99.99 -9.99
2019/09/21 21:00 PDT    2.48   2.73    8  230   16  60.6  59.9 1013.3 -9.9 -9.999 -99.9 -99.99 -9.99
2019/09/21 21:06 PDT    2.37   2.65    3  184   13  60.4  59.9 1013.4 -9.9 -9.999 -99.9 -99.99 -9.99
2019/09/21 21:12 PDT    2.27   2.55    5  235   12  60.3  59.9 1013.5 -9.9 -9.999 -99.9 -99.99 -9.99
2019/09/21 21:18 PDT    2.16   2.45    3  194    6  60.1  59.9 1013.5 -9.9 -9.999 -99.9 -99.99 -9.99
2019/09/21 21:24 PDT    2.06   2.33    3  119    8  59.9  59.9 1013.5 -9.9 -9.999 -99.9 -99.99 -9.99
2019/09/21 21:30 PDT    1.96   2.22    3  176    9  59.9  60.1 1013.5 -9.9 -9.999 -99.9 -99.99 -9.99
2019/09/21 21:36 PDT    1.86   2.11    2  189    4  59.7  60.3 1013.6 -9.9 -9.999 -99.9 -99.99 -9.99
2019/09/21 21:42 PDT    1.77   2.03    4  242    7  59.7  60.3 1013.5 -9.9 -9.999 -99.9 -99.99 -9.99
2019/09/21 21:48 PDT    1.68   1.95    4  194    6  59.5  60.4 1013.6 -9.9 -9.999 -99.9 -99.99 -9.99
2019/09/21 21:54 PDT    1.59   1.90    3  233    7  59.5  60.4 1013.5 -9.9 -9.999 -99.9 -99.99 -9.99
2019/09/21 22:00 PDT    1.51   1.84    5  218    9  59.5  60.4 1013.5 -9.9 -9.999 -99.9 -99.99 -9.99
2019/09/21 22:06 PDT    1.42   1.80    1  233    6  59.4  60.6 1013.5 -9.9 -9.999 -99.9 -99.99 -9.99
2019/09/21 22:12 PDT    1.35   1.72    3  231    6  59.4  60.6 1013.5 -9.9 -9.999 -99.9 -99.99 -9.99
2019/09/21 22:18 PDT    1.27   1.61    4  221    7  59.5  60.6 1013.5 -9.9 -9.999 -99.9 -99.99 -9.99
2019/09/21 22:24 PDT    1.20   1.56    4  253    7  59.5  60.6 1013.5 -9.9 -9.999 -99.9 -99.99 -9.99
2019/09/21 22:30 PDT    1.14   1.47    1  231    4  59.5  60.6 1013.5 -9.9 -9.999 -99.9 -99.99 -9.99
2019/09/21 22:36 PDT    1.08   1.41    2  205    4  59.4  60.8 1013.4 -9.9 -9.999 -99.9 -99.99 -9.99
2019/09/21 22:42 PDT    1.02   1.34    3  210    5  59.4  60.8 1013.4 -9.9 -9.999 -99.9 -99.99 -9.99
2019/09/21 22:48 PDT    0.97   1.24    4  217    7  59.4  60.6 1013.4 -9.9 -9.999 -99.9 -99.99 -9.99
2019/09/21 22:54 PDT    0.92   1.16    1  204    6  59.4  60.6 1013.4 -9.9 -9.999 -99.9 -99.99 -9.99
2019/09/21 23:00 PDT    0.88   1.12    2  215    4  59.4  60.6 1013.4 -9.9 -9.999 -99.9 -99.99 -9.99
2019/09/21 23:06 PDT    0.84   1.10    3  211    4  59.4  60.6 1013.4 -9.9 -9.999 -99.9 -99.99 -9.99
2019/09/21 23:12 PDT    0.80   1.08    3  204    6  59.4  60.6 1013.5 -9.9 -9.999 -99.9 -99.99 -9.99
2019/09/21 23:18 PDT    0.77   1.06    2  213    5  59.4  60.4 1013.4 -9.9 -9.999 -99.9 -99.99 -9.99
2019/09/21 23:24 PDT    0.75   1.05    3  237    5  59.4  60.4 1013.4 -9.9 -9.999 -99.9 -99.99 -9.99
2019/09/21 23:30 PDT    0.72   1.01    4  219    6  59.4  60.6 1013.5 -9.9 -9.999 -99.9 -99.99 -9.99
2019/09/21 23:36 PDT    0.71   1.00    4  229   10  59.4  60.6 1013.4 -9.9 -9.999 -99.9 -99.99 -9.99
2019/09/21 23:42 PDT    0.69   1.01    6  221    9  59.4  60.6 1013.4 -9.9 -9.999 -99.9 -99.99 -9.99
2019/09/21 23:48 PDT    0.68   1.01    3  227    9  59.2  60.6 1013.4 -9.9 -9.999 -99.9 -99.99 -9.99
2019/09/21 23:54 PDT    0.68   0.98    7  225   11  59.2  60.4 1013.3 -9.9 -9.999 -99.9 -99.99 -9.99
2019/09/22 00:00 PDT    0.68   0.97    6  227   10  59.2  60.4 1013.3 -9.9 -9.999 -99.9 -99.99 -9.99
2019/09/22 00:06 PDT    0.68   0.99    4  230   11  59.2  60.4 1013.2 -9.9 -9.999 -99.9 -99.99 -9.99
2019/09/22 00:12 PDT    0.68   0.99    6  231    9  59.2  60.8 1013.2 -9.9 -9.999 -99.9 -99.99 -9.99
2019/09/22 00:18 PDT    0.69   1.00    5  231    8  59.0  61.5 1013.3 -9.9 -9.999 -99.9 -99.99 -9.99
2019/09/22 00:24 PDT    0.71   1.01    4  221    9  59.0  61.7 1013.2 -9.9 -9.999 -99.9 -99.99 -9.99
2019/09/22 00:30 PDT    0.72   1.03    4  216   10  59.0  62.2 1013.2 -9.9 -9.999 -99.9 -99.99 -9.99
2019/09/22 00:36 PDT    0.74   1.05    3  223    7  59.0  62.6 1013.2 -9.9 -9.999 -99.9 -99.99 -9.99
2019/09/22 00:42 PDT    0.76   1.05    3  198    6  58.8  62.6 1013.2 -9.9 -9.999 -99.9 -99.99 -9.99
2019/09/22 00:48 PDT    0.79   1.09    2  254    7  58.8  62.8 1013.2 -9.9 -9.999 -99.9 -99.99 -9.99
2019/09/22 00:54 PDT    0.82   1.12    4  222    6  58.8  63.0 1013.2 -9.9 -9.999 -99.9 -99.99 -9.99
2019/09/22 01:00 PDT    0.85   1.12    4  248    6  58.8  63.0 1013.2 -9.9 -9.999 -99.9 -99.99 -9.99
2019/09/22 01:06 PDT    0.88   1.14    2  216    7  58.8  63.0 1013.3 -9.9 -9.999 -99.9 -99.99 -9.99
2019/09/22 01:12 PDT    0.92   1.20    5  251    7  58.8  63.1 1013.3 -9.9 -9.999 -99.9 -99.99 -9.99
2019/09/22 01:18 PDT    0.96   1.24    2  250    4  58.8  63.5 1013.2 -9.9 -9.999 -99.9 -99.99 -9.99
2019/09/22 01:24 PDT    1.00   1.28    3  245    7  58.8  63.7 1013.2 -9.9 -9.999 -99.9 -99.99 -9.99
2019/09/22 01:30 PDT    1.05   1.32    5  247    8  58.8  63.9 1013.2 -9.9 -9.999 -99.9 -99.99 -9.99
2019/09/22 01:36 PDT    1.10   1.36    2  242    7  58.8  63.9 1013.2 -9.9 -9.999 -99.9 -99.99 -9.99
2019/09/22 01:42 PDT    1.15   1.43    2  242    6  58.8  63.9 1013.1 -9.9 -9.999 -99.9 -99.99 -9.99
2019/09/22 01:48 PDT    1.20   1.47    3  229    7  58.6  63.9 1013.1 -9.9 -9.999 -99.9 -99.99 -9.99
2019/09/22 01:54 PDT    1.25   1.51    3  220    7  58.6  64.0 1013.1 -9.9 -9.999 -99.9 -99.99 -9.99
2019/09/22 02:00 PDT    1.31   1.59    3  235    5  58.6  64.2 1013.1 -9.9 -9.999 -99.9 -99.99 -9.99
2019/09/22 02:06 PDT    1.37   1.66    4  235    8  58.6  64.2 1013.1 -9.9 -9.999 -99.9 -99.99 -9.99
2019/09/22 02:12 PDT    1.43   1.70    4  242    6  58.5  64.2 1013.1 -9.9 -9.999 -99.9 -99.99 -9.99
2019/09/22 02:18 PDT    1.49   1.74    2  225    6  58.5  64.4 1013.1 -9.9 -9.999 -99.9 -99.99 -9.99
2019/09/22 02:24 PDT    1.55   1.78    5  237    7  58.5  64.6 1013.2 -9.9 -9.999 -99.9 -99.99 -9.99
2019/09/22 02:30 PDT    1.62   1.82    4  226    7  58.5  64.6 1013.1 -9.9 -9.999 -99.9 -99.99 -9.99
2019/09/22 02:36 PDT    1.68   1.85    4  204    6  58.3  64.4 1013.1 -9.9 -9.999 -99.9 -99.99 -9.99
2019/09/22 02:42 PDT    1.75   1.92    1  210    7  58.3  64.4 1013.1 -9.9 -9.999 -99.9 -99.99 -9.99
2019/09/22 02:48 PDT    1.82   2.03    2  233    4  58.3  64.6 1013.1 -9.9 -9.999 -99.9 -99.99 -9.99
2019/09/22 02:54 PDT    1.88   2.07    1  198    3  58.3  64.8 1013.1 -9.9 -9.999 -99.9 -99.99 -9.99
2019/09/22 03:00 PDT    1.95 -99.99 -999 -999 -999 -99.9 -99.9 -999.9 -9.9 -9.999 -99.9 -99.99 -9.99
2019/09/22 03:06 PDT    2.02 -99.99 -999 -999 -999 -99.9 -99.9 -999.9 -9.9 -9.999 -99.9 -99.99 -9.99
2019/09/22 03:12 PDT    2.09 -99.99 -999 -999 -999 -99.9 -99.9 -999.9 -9.9 -9.999 -99.9 -99.99 -9.99
2019/09/22 03:18 PDT    2.16 -99.99 -999 -999 -999 -99.9 -99.9 -999.9 -9.9 -9.999 -99.9 -99.99 -9.99
2019/09/22 03:24 PDT    2.23 -99.99 -999 -999 -999 -99.9 -99.9 -999.9 -9.9 -9.999 -99.9 -99.99 -9.99
2019/09/22 03:30 PDT    2.30 -99.99 -999 -999 -999 -99.9 -99.9 -999.9 -9.9 -9.999 -99.9 -99.99 -9.99
2019/09/22 03:36 PDT    2.37 -99.99 -999 -999 -999 -99.9 -99.9 -999.9 -9.9 -9.999 -99.9 -99.99 -9.99
2019/09/22 03:42 PDT    2.44 -99.99 -999 -999 -999 -99.9 -99.9 -999.9 -9.9 -9.999 -99.9 -99.99 -9.99
2019/09/22 03:48 PDT    2.51 -99.99 -999 -999 -999 -99.9 -99.9 -999.9 -9.9 -9.999 -99.9 -99.99 -9.99
2019/09/22 03:54 PDT    2.58 -99.99 -999 -999 -999 -99.9 -99.9 -999.9 -9.9 -9.999 -99.9 -99.99 -9.99
2019/09/22 04:00 PDT    2.64 -99.99 -999 -999 -999 -99.9 -99.9 -999.9 -9.9 -9.999 -99.9 -99.99 -9.99
2019/09/22 04:06 PDT    2.71 -99.99 -999 -999 -999 -99.9 -99.9 -999.9 -9.9 -9.999 -99.9 -99.99 -9.99
2019/09/22 04:12 PDT    2.78 -99.99 -999 -999 -999 -99.9 -99.9 -999.9 -9.9 -9.999 -99.9 -99.99 -9.99
2019/09/22 04:18 PDT    2.85 -99.99 -999 -999 -999 -99.9 -99.9 -999.9 -9.9 -9.999 -99.9 -99.99 -9.99
2019/09/22 04:24 PDT    2.91 -99.99 -999 -999 -999 -99.9 -99.9 -999.9 -9.9 -9.999 -99.9 -99.99 -9.99
2019/09/22 04:30 PDT    2.98 -99.99 -999 -999 -999 -99.9 -99.9 -999.9 -9.9 -9.999 -99.9 -99.99 -9.99
2019/09/22 04:36 PDT    3.04 -99.99 -999 -999 -999 -99.9 -99.9 -999.9 -9.9 -9.999 -99.9 -99.99 -9.99
2019/09/22 04:42 PDT    3.10 -99.99 -999 -999 -999 -99.9 -99.9 -999.9 -9.9 -9.999 -99.9 -99.99 -9.99
2019/09/22 04:48 PDT    3.17 -99.99 -999 -999 -999 -99.9 -99.9 -999.9 -9.9 -9.999 -99.9 -99.99 -9.99
2019/09/22 04:54 PDT    3.23 -99.99 -999 -999 -999 -99.9 -99.9 -999.9 -9.9 -9.999 -99.9 -99.99 -9.99
2019/09/22 05:00 PDT    3.29 -99.99 -999 -999 -999 -99.9 -99.9 -999.9 -9.9 -9.999 -99.9 -99.99 -9.99
2019/09/22 05:06 PDT    3.35 -99.99 -999 -999 -999 -99.9 -99.9 -999.9 -9.9 -9.999 -99.9 -99.99 -9.99
2019/09/22 05:12 PDT    3.40 -99.99 -999 -999 -999 -99.9 -99.9 -999.9 -9.9 -9.999 -99.9 -99.99 -9.99
2019/09/22 05:18 PDT    3.46 -99.99 -999 -999 -999 -99.9 -99.9 -999.9 -9.9 -9.999 -99.9 -99.99 -9.99
2019/09/22 05:24 PDT    3.52 -99.99 -999 -999 -999 -99.9 -99.9 -999.9 -9.9 -9.999 -99.9 -99.99 -9.99
2019/09/22 05:30 PDT    3.57 -99.99 -999 -999 -999 -99.9 -99.9 -999.9 -9.9 -9.999 -99.9 -99.99 -9.99
2019/09/22 05:36 PDT    3.62 -99.99 -999 -999 -999 -99.9 -99.9 -999.9 -9.9 -9.999 -99.9 -99.99 -9.99
2019/09/22 05:42 PDT    3.68 -99.99 -999 -999 -999 -99.9 -99.9 -999.9 -9.9 -9.999 -99.9 -99.99 -9.99
2019/09/22 05:48 PDT    3.73 -99.99 -999 -999 -999 -99.9 -99.9 -999.9 -9.9 -9.999 -99.9 -99.99 -9.99
2019/09/22 05:54 PDT    3.77 -99.99 -999 -999 -999 -99.9 -99.9 -999.9 -9.9 -9.999 -99.9 -99.99 -9.99
2019/09/22 06:00 PDT    3.82 -99.99 -999 -999 -999 -99.9 -99.9 -999.9 -9.9 -9.999 -99.9 -99.99 -9.99
2019/09/22 06:06 PDT    3.86 -99.99 -999 -999 -999 -99.9 -99.9 -999.9 -9.9 -9.999 -99.9 -99.99 -9.99
2019/09/22 06:12 PDT    3.90 -99.99 -999 -999 -999 -99.9 -99.9 -999.9 -9.9 -9.999 -99.9 -99.99 -9.99
2019/09/22 06:18 PDT    3.94 -99.99 -999 -999 -999 -99.9 -99.9 -999.9 -9.9 -9.999 -99.9 -99.99 -9.99
2019/09/22 06:24 PDT    3.98 -99.99 -999 -999 -999 -99.9 -99.9 -999.9 -9.9 -9.999 -99.9 -99.99 -9.99
2019/09/22 06:30 PDT    4.02 -99.99 -999 -999 -999 -99.9 -99.9 -999.9 -9.9 -9.999 -99.9 -99.99 -9.99
2019/09/22 06:36 PDT    4.05 -99.99 -999 -999 -999 -99.9 -99.9 -999.9 -9.9 -9.999 -99.9 -99.99 -9.99
2019/09/22 06:42 PDT    4.08 -99.99 -999 -999 -999 -99.9 -99.9 -999.9 -9.9 -9.999 -99.9 -99.99 -9.99
2019/09/22 06:48 PDT    4.10 -99.99 -999 -999 -999 -99.9 -99.9 -999.9 -9.9 -9.999 -99.9 -99.99 -9.99
2019/09/22 06:54 PDT    4.13 -99.99 -999 -999 -999 -99.9 -99.9 -999.9 -9.9 -9.999 -99.9 -99.99 -9.99
2019/09/22 07:00 PDT    4.15 -99.99 -999 -999 -999 -99.9 -99.9 -999.9 -9.9 -9.999 -99.9 -99.99 -9.99
2019/09/22 07:06 PDT    4.17 -99.99 -999 -999 -999 -99.9 -99.9 -999.9 -9.9 -9.999 -99.9 -99.99 -9.99
2019/09/22 07:12 PDT    4.18 -99.99 -999 -999 -999 -99.9 -99.9 -999.9 -9.9 -9.999 -99.9 -99.99 -9.99
2019/09/22 07:18 PDT    4.19 -99.99 -999 -999 -999 -99.9 -99.9 -999.9 -9.9 -9.999 -99.9 -99.99 -9.99
2019/09/22 07:24 PDT    4.20 -99.99 -999 -999 -999 -99.9 -99.9 -999.9 -9.9 -9.999 -99.9 -99.99 -9.99
2019/09/22 07:30 PDT    4.21 -99.99 -999 -999 -999 -99.9 -99.9 -999.9 -9.9 -9.999 -99.9 -99.99 -9.99
2019/09/22 07:36 PDT    4.21 -99.99 -999 -999 -999 -99.9 -99.9 -999.9 -9.9 -9.999 -99.9 -99.99 -9.99
2019/09/22 07:42 PDT    4.22 -99.99 -999 -999 -999 -99.9 -99.9 -999.9 -9.9 -9.999 -99.9 -99.99 -9.99
2019/09/22 07:48 PDT    4.21 -99.99 -999 -999 -999 -99.9 -99.9 -999.9 -9.9 -9.999 -99.9 -99.99 -9.99
2019/09/22 07:54 PDT    4.21 -99.99 -999 -999 -999 -99.9 -99.9 -999.9 -9.9 -9.999 -99.9 -99.99 -9.99
2019/09/22 08:00 PDT    4.20 -99.99 -999 -999 -999 -99.9 -99.9 -999.9 -9.9 -9.999 -99.9 -99.99 -9.99
2019/09/22 08:06 PDT    4.19 -99.99 -999 -999 -999 -99.9 -99.9 -999.9 -9.9 -9.999 -99.9 -99.99 -9.99
2019/09/22 08:12 PDT    4.18 -99.99 -999 -999 -999 -99.9 -99.9 -999.9 -9.9 -9.999 -99.9 -99.99 -9.99
2019/09/22 08:18 PDT    4.17 -99.99 -999 -999 -999 -99.9 -99.9 -999.9 -9.9 -9.999 -99.9 -99.99 -9.99
2019/09/22 08:24 PDT    4.15 -99.99 -999 -999 -999 -99.9 -99.9 -999.9 -9.9 -9.999 -99.9 -99.99 -9.99
2019/09/22 08:30 PDT    4.13 -99.99 -999 -999 -999 -99.9 -99.9 -999.9 -9.9 -9.999 -99.9 -99.99 -9.99
2019/09/22 08:36 PDT    4.11 -99.99 -999 -999 -999 -99.9 -99.9 -999.9 -9.9 -9.999 -99.9 -99.99 -9.99
2019/09/22 08:42 PDT    4.09 -99.99 -999 -999 -999 -99.9 -99.9 -999.9 -9.9 -9.999 -99.9 -99.99 -9.99
2019/09/22 08:48 PDT    4.07 -99.99 -999 -999 -999 -99.9 -99.9 -999.9 -9.9 -9.999 -99.9 -99.99 -9.99
2019/09/22 08:54 PDT    4.04 -99.99 -999 -999 -999 -99.9 -99.9 -999.9 -9.9 -9.999 -99.9 -99.99 -9.99
2019/09/22 09:00 PDT    4.02 -99.99 -999 -999 -999 -99.9 -99.9 -999.9 -9.9 -9.999 -99.9 -99.99 -9.99
2019/09/22 09:06 PDT    3.99 -99.99 -999 -999 -999 -99.9 -99.9 -999.9 -9.9 -9.999 -99.9 -99.99 -9.99